Time;durP1;ratioP1;P1;durP2;ratioP2;P2;SDS_P1;SDS_P2;PMS_P1;PMS_P2;Temp;Humidity;BMP_temperature;BMP_pressure;BME280_temperature;BME280_humidity;BME280_pressure;Samples;Min_cycle;Max_cycle;Signal;HPM_P1;HPM_P2
2021/09/16 00:00:11;;;;;;;3.15;0.80;;;15.20;90.20;;;;;;4994293;28;20379;-84
2021/09/16 00:02:36;;;;;;;7.38;1.27;;;15.10;90.20;;;;;;4992493;28;20033;-86
2021/09/16 00:05:02;;;;;;;2.65;0.70;;;15.10;90.30;;;;;;5023763;28;20034;-85
2021/09/16 00:07:28;;;;;;;5.15;0.90;;;15.10;90.30;;;;;;4991336;28;20037;-85
2021/09/16 00:09:53;;;;;;;3.80;0.60;;;15.00;90.30;;;;;;4991429;28;20117;-85
2021/09/16 00:12:19;;;;;;;5.57;0.95;;;15.00;90.40;;;;;;4975410;28;20125;-85
2021/09/16 00:14:45;;;;;;;4.22;0.60;;;15.00;90.50;;;;;;4996305;28;20049;-85
2021/09/16 00:17:10;;;;;;;5.53;0.73;;;14.90;90.50;;;;;;4997892;28;20034;-86
2021/09/16 00:19:36;;;;;;;3.17;0.63;;;14.90;90.60;;;;;;4996438;28;20030;-84
2021/09/16 00:22:02;;;;;;;3.35;1.10;;;14.90;90.70;;;;;;4996166;28;20536;-84
2021/09/16 00:24:27;;;;;;;5.07;1.02;;;14.80;90.80;;;;;;4997550;28;20530;-85
2021/09/16 00:26:53;;;;;;;7.28;0.93;;;14.80;90.80;;;;;;4980578;28;20036;-85
2021/09/16 00:29:19;;;;;;;4.03;0.77;;;14.80;90.90;;;;;;4980350;28;20026;-85
2021/09/16 00:31:44;;;;;;;6.97;1.23;;;14.80;91.10;;;;;;4980326;28;20050;-86
2021/09/16 00:34:10;;;;;;;6.93;0.93;;;14.70;91.00;;;;;;4980306;28;20073;-85
2021/09/16 00:36:37;;;;;;;2.40;0.75;;;14.70;91.00;;;;;;4996510;28;20035;-85
2021/09/16 00:39:03;;;;;;;5.95;0.93;;;14.70;91.00;;;;;;4980385;28;20084;-84
2021/09/16 00:41:29;;;;;;;6.47;1.30;;;14.70;91.10;;;;;;5012847;28;20030;-84
2021/09/16 00:43:55;;;;;;;7.32;1.02;;;14.60;91.20;;;;;;4979952;28;20030;-85
2021/09/16 00:46:21;;;;;;;5.63;1.13;;;14.60;91.30;;;;;;4996150;28;20459;-84
2021/09/16 00:48:47;;;;;;;7.25;1.35;;;14.60;91.40;;;;;;4996654;28;20053;-84
2021/09/16 00:51:13;;;;;;;3.65;1.20;;;14.60;91.60;;;;;;4996374;28;20521;-84
2021/09/16 00:53:40;;;;;;;9.82;1.20;;;14.60;91.60;;;;;;4996201;28;20109;-85
2021/09/16 00:56:08;;;;;;;7.03;1.77;;;14.60;91.80;;;;;;4997271;28;20031;-83
2021/09/16 00:58:39;;;;;;;5.95;1.33;;;14.60;91.90;;;;;;4996003;28;20034;-85
2021/09/16 01:01:05;;;;;;;3.53;1.30;;;14.60;92.00;;;;;;4997189;28;20033;-84
2021/09/16 01:03:31;;;;;;;6.50;1.48;;;14.60;92.00;;;;;;4979596;28;20026;-84
2021/09/16 01:05:57;;;;;;;7.10;1.70;;;14.70;92.20;;;;;;4995866;28;20027;-84
2021/09/16 01:08:23;;;;;;;6.10;1.50;;;14.70;92.20;;;;;;4995806;28;20190;-85
2021/09/16 01:10:49;;;;;;;8.65;1.10;;;14.70;92.30;;;;;;4997127;28;20061;-85
2021/09/16 01:13:16;;;;;;;6.78;1.30;;;14.70;92.30;;;;;;4979126;28;20041;-85
2021/09/16 01:15:42;;;;;;;3.92;1.05;;;14.70;92.40;;;;;;4996714;28;20138;-85
2021/09/16 01:18:08;;;;;;;7.18;1.30;;;14.70;92.40;;;;;;4979153;28;20042;-85
2021/09/16 01:20:34;;;;;;;5.50;1.27;;;14.70;92.50;;;;;;4979367;28;20088;-86
2021/09/16 01:23:00;;;;;;;5.88;1.10;;;14.80;92.60;;;;;;4995476;28;20045;-84
2021/09/16 01:25:30;;;;;;;5.80;1.05;;;14.80;92.50;;;;;;4995132;28;20497;-83
2021/09/16 01:27:57;;;;;;;4.18;0.80;;;14.80;92.40;;;;;;4995647;28;20034;-85
2021/09/16 01:30:24;;;;;;;7.72;1.00;;;14.80;92.50;;;;;;4979083;28;20026;-86
2021/09/16 01:32:51;;;;;;;7.22;1.13;;;14.80;92.50;;;;;;4979659;28;20033;-85
2021/09/16 01:35:17;;;;;;;9.18;1.38;;;14.80;92.50;;;;;;4995953;28;20034;-85
2021/09/16 01:37:43;;;;;;;2.88;0.75;;;14.80;92.40;;;;;;4995271;28;20136;-86
2021/09/16 01:40:09;;;;;;;6.15;1.00;;;14.70;92.40;;;;;;4995554;28;20030;-85
2021/09/16 01:42:39;;;;;;;4.22;0.90;;;14.70;92.50;;;;;;4995119;28;20478;-85
2021/09/16 01:45:05;;;;;;;7.07;2.20;;;14.70;92.50;;;;;;4979485;28;20026;-85
2021/09/16 01:47:33;;;;;;;6.18;1.05;;;14.60;92.60;;;;;;4978830;28;20077;-85
2021/09/16 01:49:59;;;;;;;4.43;1.45;;;14.60;92.80;;;;;;4995244;28;20581;-85
2021/09/16 01:52:24;;;;;;;7.90;1.67;;;14.50;92.70;;;;;;4995039;28;20058;-85
2021/09/16 01:54:50;;;;;;;3.47;0.90;;;14.50;92.80;;;;;;4979115;28;20038;-84
2021/09/16 01:57:17;;;;;;;7.07;1.27;;;14.50;92.80;;;;;;4995119;28;20030;-85
2021/09/16 01:59:42;;;;;;;7.13;1.17;;;14.50;92.90;;;;;;4978857;28;20053;-85
2021/09/16 02:02:08;;;;;;;6.97;1.52;;;14.40;92.90;;;;;;4994809;28;20389;-85
2021/09/16 02:04:34;;;;;;;5.63;1.38;;;14.40;93.10;;;;;;4978754;28;20058;-86
2021/09/16 02:06:59;;;;;;;11.90;1.08;;;14.40;93.20;;;;;;4978693;28;20125;-85
2021/09/16 02:09:25;;;;;;;3.80;1.00;;;14.40;93.50;;;;;;4995978;28;20477;-84
2021/09/16 02:11:50;;;;;;;3.20;1.35;;;14.40;93.20;;;;;;4994845;28;20040;-85
2021/09/16 02:14:16;;;;;;;4.10;1.70;;;14.50;93.30;;;;;;4977903;28;20042;-85
2021/09/16 02:16:42;;;;;;;5.43;1.58;;;14.50;93.20;;;;;;4978486;28;20494;-84
2021/09/16 02:19:07;;;;;;;6.70;1.73;;;14.40;93.20;;;;;;4994638;28;20030;-86
2021/09/16 02:21:33;;;;;;;4.57;1.48;;;14.50;93.30;;;;;;4994533;28;20034;-84
2021/09/16 02:24:00;;;;;;;7.05;1.23;;;14.40;93.30;;;;;;4994760;28;20030;-84
2021/09/16 02:26:25;;;;;;;3.63;1.27;;;14.30;93.20;;;;;;4978794;28;20039;-85
2021/09/16 02:28:51;;;;;;;5.68;1.20;;;14.40;93.30;;;;;;4994383;28;20393;-84
2021/09/16 02:31:16;;;;;;;4.45;1.50;;;14.40;93.40;;;;;;4977746;28;20027;-85
2021/09/16 02:33:42;;;;;;;5.55;1.50;;;14.40;93.40;;;;;;4994287;28;20034;-85
2021/09/16 02:36:07;;;;;;;8.23;1.83;;;14.40;93.40;;;;;;4993807;28;20121;-85
2021/09/16 02:38:33;;;;;;;7.25;1.83;;;14.40;93.40;;;;;;4994644;28;20030;-85
2021/09/16 02:40:59;;;;;;;5.38;1.63;;;14.40;93.50;;;;;;4977986;28;20061;-85
2021/09/16 02:43:24;;;;;;;8.23;1.65;;;14.40;93.50;;;;;;4994493;28;20062;-84
2021/09/16 02:45:50;;;;;;;7.72;1.80;;;14.40;93.50;;;;;;4978246;28;20493;-85
2021/09/16 02:48:16;;;;;;;8.52;1.85;;;14.40;93.60;;;;;;4978143;28;20027;-85
2021/09/16 02:50:41;;;;;;;5.03;1.83;;;14.40;93.60;;;;;;5011014;28;20030;-86
2021/09/16 02:53:07;;;;;;;7.25;1.83;;;14.40;93.60;;;;;;4977727;28;20064;-85
2021/09/16 02:55:33;;;;;;;4.28;1.63;;;14.40;93.50;;;;;;4977907;28;20047;-86
2021/09/16 02:57:58;;;;;;;5.13;1.52;;;14.50;93.50;;;;;;4994150;28;20023;-85
2021/09/16 03:00:27;;;;;;;7.15;1.83;;;14.50;93.60;;;;;;5009532;28;20022;-85
2021/09/16 03:02:52;;;;;;;10.43;2.00;;;14.50;93.60;;;;;;4977847;28;20054;-84
2021/09/16 03:05:18;;;;;;;6.70;1.52;;;14.50;93.60;;;;;;4993803;28;20034;-85
2021/09/16 03:07:44;;;;;;;8.57;1.48;;;14.60;93.60;;;;;;4994282;28;20041;-85
2021/09/16 03:10:11;;;;;;;6.18;1.70;;;14.50;93.60;;;;;;4993925;28;20042;-85
2021/09/16 03:12:36;;;;;;;6.22;1.70;;;14.50;93.60;;;;;;4977786;28;20038;-86
2021/09/16 03:15:03;;;;;;;5.85;2.03;;;14.50;93.60;;;;;;4993880;28;20042;-85
2021/09/16 03:17:28;;;;;;;10.00;1.92;;;14.60;93.70;;;;;;4993568;28;20041;-85
2021/09/16 03:19:54;;;;;;;6.07;1.50;;;14.60;94.00;;;;;;4977416;28;20026;-84
2021/09/16 03:22:19;;;;;;;5.78;1.40;;;14.60;93.70;;;;;;4993813;28;20034;-85
2021/09/16 03:24:45;;;;;;;5.57;1.63;;;14.60;93.70;;;;;;4976933;28;20478;-84
2021/09/16 03:27:11;;;;;;;3.35;1.13;;;14.60;93.70;;;;;;4993087;28;20082;-83
2021/09/16 03:29:36;;;;;;;3.95;1.20;;;14.70;93.80;;;;;;4993426;28;20391;-85
2021/09/16 03:32:02;;;;;;;4.55;1.20;;;14.70;93.80;;;;;;4976576;28;20426;-84
2021/09/16 03:34:28;;;;;;;3.95;1.10;;;14.70;93.80;;;;;;4993263;28;20035;-84
2021/09/16 03:36:53;;;;;;;4.22;1.52;;;14.70;93.80;;;;;;4977036;28;20405;-84
2021/09/16 03:39:19;;;;;;;8.02;1.70;;;14.70;93.80;;;;;;4993251;28;20049;-84
2021/09/16 03:41:45;;;;;;;4.60;1.40;;;14.70;93.90;;;;;;4976579;28;20041;-85
2021/09/16 03:44:10;;;;;;;3.88;1.35;;;14.70;93.90;;;;;;4977053;28;20585;-85
2021/09/16 03:46:36;;;;;;;3.63;1.10;;;14.70;93.90;;;;;;4992595;28;20121;-85
2021/09/16 03:49:01;;;;;;;5.10;1.20;;;14.80;93.90;;;;;;4992538;28;20113;-85
2021/09/16 03:51:27;;;;;;;4.30;1.10;;;14.80;93.90;;;;;;4993082;28;20026;-84
2021/09/16 03:53:53;;;;;;;4.70;1.65;;;14.80;94.00;;;;;;4992662;28;20530;-84
2021/09/16 03:56:18;;;;;;;7.22;1.50;;;14.80;94.00;;;;;;4992813;28;20022;-85
2021/09/16 03:58:44;;;;;;;4.80;1.33;;;14.80;94.00;;;;;;4976647;28;20371;-84
2021/09/16 04:01:10;;;;;;;4.88;1.90;;;14.80;94.00;;;;;;4992734;28;20031;-86
2021/09/16 04:03:35;;;;;;;6.40;1.60;;;14.80;94.10;;;;;;4992997;28;20398;-86
2021/09/16 04:06:01;;;;;;;3.42;1.10;;;14.80;94.10;;;;;;4992597;28;20030;-85
2021/09/16 04:08:26;;;;;;;5.18;1.42;;;14.90;94.20;;;;;;4976271;28;20033;-85
2021/09/16 04:10:52;;;;;;;4.70;1.50;;;14.90;94.20;;;;;;4992674;28;20437;-83
2021/09/16 04:13:18;;;;;;;4.85;1.40;;;14.80;94.30;;;;;;4976680;28;20126;-84
2021/09/16 04:15:43;;;;;;;5.65;1.70;;;14.80;94.40;;;;;;4992251;28;20172;-83
2021/09/16 04:18:09;;;;;;;10.13;1.63;;;14.90;94.40;;;;;;4976708;28;20062;-84
2021/09/16 04:20:34;;;;;;;6.85;1.60;;;14.80;94.50;;;;;;4976428;28;20542;-84
2021/09/16 04:23:00;;;;;;;8.65;1.52;;;14.80;94.60;;;;;;4992880;28;20077;-85
2021/09/16 04:25:26;;;;;;;4.88;1.20;;;14.80;94.70;;;;;;4993899;28;20050;-84
2021/09/16 04:27:51;;;;;;;7.20;1.52;;;14.80;94.60;;;;;;4991999;28;20113;-86
2021/09/16 04:30:17;;;;;;;5.18;1.10;;;14.80;94.80;;;;;;4991675;28;20030;-85
2021/09/16 04:32:43;;;;;;;5.68;1.33;;;14.80;94.90;;;;;;4973581;28;20693;-85
2021/09/16 04:35:09;;;;;;;3.67;1.27;;;14.80;94.90;;;;;;4990846;28;20065;-85
2021/09/16 04:37:35;;;;;;;6.13;1.00;;;14.80;94.90;;;;;;4991309;28;20088;-85
2021/09/16 04:40:01;;;;;;;4.82;1.02;;;14.80;94.90;;;;;;4991123;28;20113;-86
2021/09/16 04:42:27;;;;;;;5.85;1.55;;;14.80;94.90;;;;;;4993244;28;20657;-85
2021/09/16 04:44:53;;;;;;;5.22;0.98;;;14.80;94.90;;;;;;4975545;28;20035;-84
2021/09/16 04:47:18;;;;;;;6.47;1.00;;;14.80;94.90;;;;;;4993077;28;20029;-85
2021/09/16 04:49:44;;;;;;;6.28;0.88;;;14.80;94.90;;;;;;4992469;28;20062;-85
2021/09/16 04:52:10;;;;;;;10.40;0.90;;;14.80;94.90;;;;;;4976452;28;20133;-85
2021/09/16 04:54:35;;;;;;;7.32;0.80;;;14.80;94.80;;;;;;4975976;28;20049;-86
2021/09/16 04:57:01;;;;;;;5.32;1.23;;;14.90;94.90;;;;;;4975961;28;20125;-85
2021/09/16 04:59:27;;;;;;;3.65;0.80;;;14.80;94.80;;;;;;4993627;28;20035;-85
2021/09/16 05:01:52;;;;;;;8.95;1.08;;;14.90;94.80;;;;;;4997034;28;20374;-86
2021/09/16 05:04:18;;;;;;;6.75;0.75;;;14.80;94.70;;;;;;4996176;28;20027;-84
2021/09/16 05:06:44;;;;;;;5.93;0.70;;;14.80;94.80;;;;;;4979810;28;20031;-85
2021/09/16 05:09:10;;;;;;;6.05;1.27;;;14.80;94.70;;;;;;4996202;28;20026;-86
2021/09/16 05:11:41;;;;;;;6.63;1.00;;;14.80;94.70;;;;;;4979402;28;20026;-85
2021/09/16 05:14:08;;;;;;;2.97;0.90;;;14.80;94.70;;;;;;4979943;28;20019;-85
2021/09/16 05:16:35;;;;;;;6.57;0.80;;;14.80;94.70;;;;;;4979708;28;20033;-84
2021/09/16 05:19:01;;;;;;;10.70;0.90;;;14.80;94.70;;;;;;4995633;28;20538;-85
2021/09/16 05:21:27;;;;;;;5.13;0.88;;;14.80;94.60;;;;;;4995145;28;20113;-84
2021/09/16 05:23:53;;;;;;;6.78;1.13;;;14.80;94.60;;;;;;4979435;28;20128;-85
2021/09/16 05:26:19;;;;;;;4.15;0.88;;;14.70;94.60;;;;;;4978602;28;20073;-83
2021/09/16 05:28:45;;;;;;;5.57;1.00;;;14.70;94.60;;;;;;4978470;28;20048;-85
2021/09/16 05:31:11;;;;;;;4.07;0.90;;;14.70;94.60;;;;;;5011462;28;20026;-85
2021/09/16 05:33:37;;;;;;;2.80;0.80;;;14.70;94.60;;;;;;4995255;28;20065;-85
2021/09/16 05:36:04;;;;;;;5.63;1.00;;;14.70;94.60;;;;;;4995014;28;20303;-84
2021/09/16 05:38:30;;;;;;;4.05;0.88;;;14.70;94.60;;;;;;4979190;28;20042;-85
2021/09/16 05:40:56;;;;;;;3.25;0.75;;;14.70;94.60;;;;;;4978626;28;20034;-85
2021/09/16 05:43:22;;;;;;;5.30;1.13;;;14.80;94.60;;;;;;4978825;28;20386;-85
2021/09/16 05:45:49;;;;;;;4.43;0.73;;;14.80;94.60;;;;;;4979001;28;20037;-85
2021/09/16 05:48:16;;;;;;;6.57;1.15;;;14.80;94.60;;;;;;4994523;28;20058;-85
2021/09/16 05:50:42;;;;;;;3.25;0.63;;;14.70;94.50;;;;;;4995949;28;20071;-85
2021/09/16 05:53:09;;;;;;;4.13;0.82;;;14.80;94.50;;;;;;4995911;28;20360;-85
2021/09/16 05:55:39;;;;;;;6.15;0.70;;;14.80;94.60;;;;;;4994353;28;20505;-85
2021/09/16 05:58:05;;;;;;;5.75;1.23;;;14.80;94.60;;;;;;5011500;28;20461;-85
2021/09/16 06:00:31;;;;;;;3.80;0.60;;;14.70;94.60;;;;;;4977948;28;20390;-84
2021/09/16 06:02:56;;;;;;;6.18;0.80;;;14.80;94.60;;;;;;4995800;28;20034;-85
2021/09/16 06:05:22;;;;;;;5.20;0.82;;;14.80;94.60;;;;;;4994600;28;20042;-84
2021/09/16 06:07:48;;;;;;;5.00;1.00;;;14.80;94.50;;;;;;4994354;28;20026;-85
2021/09/16 06:10:14;;;;;;;7.78;0.75;;;14.80;94.50;;;;;;4977476;28;20065;-84
2021/09/16 06:12:41;;;;;;;4.10;1.00;;;14.80;94.50;;;;;;4977963;28;20018;-85
2021/09/16 06:15:07;;;;;;;5.57;1.00;;;14.80;94.50;;;;;;4993700;28;20271;-85
2021/09/16 06:17:33;;;;;;;6.32;0.88;;;14.80;94.50;;;;;;4977845;28;20057;-85
2021/09/16 06:19:59;;;;;;;3.05;0.80;;;14.70;94.40;;;;;;4994352;28;20479;-85
2021/09/16 06:22:25;;;;;;;5.05;0.80;;;14.80;94.40;;;;;;4994094;28;20027;-85
2021/09/16 06:24:54;;;;;;;8.23;0.80;;;14.70;94.40;;;;;;4977803;28;20192;-85
2021/09/16 06:27:20;;;;;;;5.65;0.82;;;14.80;94.40;;;;;;4995183;28;20169;-84
2021/09/16 06:29:46;;;;;;;11.65;1.25;;;14.80;94.50;;;;;;4994126;28;20027;-85
2021/09/16 06:32:12;;;;;;;3.15;1.10;;;14.70;94.50;;;;;;4993631;28;20034;-85
2021/09/16 06:34:38;;;;;;;4.85;0.73;;;14.80;94.50;;;;;;4994113;28;20100;-85
2021/09/16 06:37:04;;;;;;;3.63;0.77;;;14.80;94.50;;;;;;4978039;28;20030;-85
2021/09/16 06:39:30;;;;;;;5.80;0.77;;;14.90;94.50;;;;;;4977645;28;20038;-85
2021/09/16 06:41:56;;;;;;;6.22;0.90;;;14.80;94.40;;;;;;4978076;28;20031;-84
2021/09/16 06:44:22;;;;;;;4.43;0.90;;;14.90;94.40;;;;;;4994000;28;20041;-85
2021/09/16 06:46:47;;;;;;;7.32;0.85;;;14.90;94.40;;;;;;4993882;28;20035;-85
2021/09/16 06:49:13;;;;;;;6.75;1.08;;;14.90;94.40;;;;;;5009720;28;20031;-84
2021/09/16 06:51:39;;;;;;;5.05;1.00;;;14.90;94.40;;;;;;4993500;28;20034;-85
2021/09/16 06:54:05;;;;;;;2.90;0.60;;;14.90;94.30;;;;;;4992257;28;20065;-84
2021/09/16 06:56:31;;;;;;;4.32;0.95;;;15.00;94.30;;;;;;4993869;28;20031;-85
2021/09/16 06:58:56;;;;;;;4.07;1.08;;;15.00;94.20;;;;;;4993647;28;20026;-85
2021/09/16 07:01:23;;;;;;;3.90;0.93;;;15.00;94.30;;;;;;4994510;28;20034;-85
2021/09/16 07:03:52;;;;;;;4.55;0.90;;;15.00;94.30;;;;;;4977828;28;20026;-84
2021/09/16 07:06:18;;;;;;;6.45;1.15;;;15.10;94.30;;;;;;4993778;28;20108;-84
2021/09/16 07:08:44;;;;;;;6.18;1.13;;;15.10;94.30;;;;;;4993232;28;20045;-84
2021/09/16 07:11:09;;;;;;;7.57;2.35;;;15.10;94.20;;;;;;4977811;28;20030;-85
2021/09/16 07:13:35;;;;;;;8.63;2.53;;;15.20;94.20;;;;;;4993897;28;20470;-85
2021/09/16 07:16:01;;;;;;;10.95;5.60;;;15.20;94.20;;;;;;4993111;28;20042;-84
2021/09/16 07:18:27;;;;;;;20.13;8.30;;;15.30;94.20;;;;;;4993327;28;20060;-85
2021/09/16 07:20:53;;;;;;;19.42;10.05;;;15.30;94.10;;;;;;4993378;28;20022;-85
2021/09/16 07:23:19;;;;;;;23.77;10.85;;;15.40;94.10;;;;;;4993604;28;20434;-84
2021/09/16 07:25:45;;;;;;;24.23;14.43;;;15.40;94.10;;;;;;4993126;28;20055;-84
2021/09/16 07:28:11;;;;;;;19.90;12.15;;;15.40;94.00;;;;;;5009852;28;20453;-85
2021/09/16 07:30:36;;;;;;;16.60;10.02;;;15.50;94.10;;;;;;4993316;28;20118;-84
2021/09/16 07:33:02;;;;;;;16.38;9.35;;;15.50;94.00;;;;;;4992982;28;20077;-85
2021/09/16 07:35:28;;;;;;;13.95;5.85;;;15.60;94.00;;;;;;4992935;28;20034;-85
2021/09/16 07:37:54;;;;;;;11.93;4.57;;;15.70;93.90;;;;;;5009200;28;20062;-85
2021/09/16 07:40:20;;;;;;;10.80;3.55;;;15.70;93.90;;;;;;5009129;28;20088;-84
2021/09/16 07:42:46;;;;;;;6.10;2.20;;;15.70;93.70;;;;;;5009566;28;20505;-84
2021/09/16 07:45:12;;;;;;;6.22;1.25;;;15.80;93.80;;;;;;4993308;28;20030;-84
2021/09/16 07:47:37;;;;;;;4.68;0.70;;;15.80;93.60;;;;;;4992465;28;20034;-85
2021/09/16 07:50:04;;;;;;;3.78;0.80;;;15.90;93.50;;;;;;4976236;28;20034;-84
2021/09/16 07:52:29;;;;;;;4.95;0.70;;;16.00;93.40;;;;;;4992387;28;20198;-84
2021/09/16 07:54:55;;;;;;;3.85;0.73;;;16.00;93.10;;;;;;4994049;28;20038;-85
2021/09/16 07:57:21;;;;;;;1.83;0.45;;;16.10;93.20;;;;;;4993334;28;20374;-84
2021/09/16 07:59:47;;;;;;;8.73;0.90;;;16.20;93.30;;;;;;4992673;28;20033;-85
2021/09/16 08:02:13;;;;;;;4.50;0.70;;;16.30;93.30;;;;;;5008446;28;20031;-84
2021/09/16 08:04:39;;;;;;;9.95;0.80;;;16.40;93.30;;;;;;5009029;28;20034;-84
2021/09/16 08:07:04;;;;;;;3.35;0.50;;;16.50;93.20;;;;;;4980497;28;20027;-84
2021/09/16 08:09:33;;;;;;;5.50;1.10;;;16.60;93.00;;;;;;4991951;28;20030;-85
2021/09/16 08:11:59;;;;;;;3.42;0.57;;;16.70;92.90;;;;;;4993159;28;20057;-85
2021/09/16 08:14:25;;;;;;;3.05;0.63;;;16.80;92.70;;;;;;4992453;28;20046;-86
2021/09/16 08:16:51;;;;;;;3.95;0.90;;;16.80;92.50;;;;;;4976438;28;20038;-85
2021/09/16 08:19:16;;;;;;;3.63;0.60;;;16.80;92.10;;;;;;4992612;28;20096;-84
2021/09/16 08:21:42;;;;;;;5.10;0.90;;;16.80;92.00;;;;;;4991491;28;20459;-84
2021/09/16 08:24:08;;;;;;;4.70;0.68;;;16.80;91.60;;;;;;4976782;28;20026;-83
2021/09/16 08:26:34;;;;;;;3.05;0.60;;;16.80;91.70;;;;;;4992500;28;20050;-85
2021/09/16 08:29:00;;;;;;;9.10;1.13;;;16.80;91.80;;;;;;4993664;28;20401;-86
2021/09/16 08:31:26;;;;;;;2.72;0.60;;;16.90;91.80;;;;;;4992447;28;20031;-85
2021/09/16 08:33:52;;;;;;;4.63;0.70;;;16.90;91.70;;;;;;4993253;28;20034;-83
2021/09/16 08:36:22;;;;;;;4.80;0.60;;;17.00;91.60;;;;;;4996332;28;20129;-85
2021/09/16 08:38:48;;;;;;;3.95;0.70;;;17.10;91.50;;;;;;4997528;28;20041;-85
2021/09/16 08:41:14;;;;;;;3.00;0.77;;;17.20;91.30;;;;;;4996328;28;20391;-84
2021/09/16 08:43:42;;;;;;;5.78;0.65;;;17.30;90.90;;;;;;5012268;28;20023;-84
2021/09/16 08:46:09;;;;;;;3.97;0.77;;;17.40;90.40;;;;;;4995844;28;20105;-86
2021/09/16 08:48:35;;;;;;;3.15;1.05;;;17.40;90.40;;;;;;5012142;28;20121;-84
2021/09/16 08:51:01;;;;;;;4.70;0.88;;;17.50;90.10;;;;;;4995414;28;20069;-84
2021/09/16 08:53:30;;;;;;;3.28;0.70;;;17.50;90.00;;;;;;4997277;28;20109;-84
2021/09/16 08:55:57;;;;;;;5.20;0.60;;;17.60;89.80;;;;;;4995709;28;20034;-84
2021/09/16 08:58:29;;;;;;;2.50;0.60;;;17.60;89.30;;;;;;4997311;28;20030;-84
2021/09/16 09:00:55;;;;;;;5.60;0.60;;;17.70;89.50;;;;;;5011718;28;20030;-84
2021/09/16 09:03:21;;;;;;;4.47;0.70;;;17.90;89.30;;;;;;4996627;28;20022;-84
2021/09/16 09:05:47;;;;;;;8.07;0.75;;;17.90;88.30;;;;;;4995778;28;20474;-84
2021/09/16 09:08:20;;;;;;;4.35;0.85;;;17.90;87.40;;;;;;4995884;28;20035;-84
2021/09/16 09:10:51;;;;;;;5.78;1.75;;;18.00;87.60;;;;;;5011478;28;20398;-86
2021/09/16 09:13:20;;;;;;;6.50;0.70;;;18.10;87.10;;;;;;5011817;28;20042;-86
2021/09/16 09:15:48;;;;;;;1.77;0.50;;;18.30;86.70;;;;;;5011736;28;20045;-85
2021/09/16 09:18:19;;;;;;;5.65;1.23;;;18.40;86.10;;;;;;5011684;28;20022;-84
2021/09/16 09:21:05;;;;;;;2.50;0.60;;;18.50;85.80;;;;;;4996739;28;20572;-84
2021/09/16 09:23:44;;;;;;;3.20;0.55;;;18.70;85.30;;;;;;5011848;28;20490;-85
2021/09/16 09:26:26;;;;;;;4.68;0.50;;;18.80;85.20;;;;;;4996279;28;20567;-83
2021/09/16 09:28:55;;;;;;;3.67;0.93;;;18.90;85.10;;;;;;5011614;28;20034;-86
2021/09/16 09:31:25;;;;;;;3.75;0.80;;;18.90;84.90;;;;;;4996633;28;20434;-85
2021/09/16 09:33:51;;;;;;;3.45;0.70;;;19.00;84.60;;;;;;5011162;28;20023;-84
2021/09/16 09:36:21;;;;;;;6.60;1.10;;;19.10;84.40;;;;;;4996472;28;20648;-85
2021/09/16 09:38:58;;;;;;;4.80;0.98;;;19.10;84.30;;;;;;4995626;28;20054;-84
2021/09/16 09:41:33;;;;;;;4.80;0.80;;;19.20;82.80;;;;;;4996418;28;20034;-83
2021/09/16 09:44:11;;;;;;;3.63;0.70;;;19.30;82.30;;;;;;5011195;28;20114;-84
2021/09/16 09:46:49;;;;;;;1.90;0.40;;;19.30;81.60;;;;;;5009303;28;20030;-84
2021/09/16 09:49:21;;;;;;;4.78;0.73;;;19.40;81.20;;;;;;4995922;28;20426;-84
2021/09/16 09:51:51;;;;;;;5.85;0.90;;;19.40;79.60;;;;;;4995849;28;20493;-84
2021/09/16 09:54:32;;;;;;;2.67;0.50;;;19.40;79.00;;;;;;4995704;28;20027;-84
2021/09/16 09:57:06;;;;;;;3.45;0.70;;;19.50;78.50;;;;;;5010548;28;20084;-85
2021/09/16 10:00:01;;;;;;;3.50;0.50;;;19.60;77.60;;;;;;4996022;28;20031;-84
2021/09/16 10:02:40;;;;;;;3.25;0.60;;;19.80;77.20;;;;;;4993194;28;20459;-84
2021/09/16 10:05:29;;;;;;;2.78;0.80;;;20.10;77.00;;;;;;5011023;28;20072;-85
2021/09/16 10:07:56;;;;;;;3.28;0.80;;;20.50;76.00;;;;;;5010859;28;20026;-84
2021/09/16 10:10:26;;;;;;;3.92;0.60;;;20.80;74.90;;;;;;4994216;28;20522;-84
2021/09/16 10:12:53;;;;;;;6.15;0.60;;;21.00;74.20;;;;;;5010567;28;20034;-84
2021/09/16 10:15:22;;;;;;;2.35;0.60;;;21.20;71.90;;;;;;4994667;28;20038;-85
2021/09/16 10:17:50;;;;;;;4.72;0.70;;;21.30;71.00;;;;;;4995641;28;20034;-85
2021/09/16 10:20:19;;;;;;;6.45;0.90;;;21.80;71.00;;;;;;5010186;28;20022;-84
2021/09/16 10:22:51;;;;;;;3.58;0.57;;;22.20;70.20;;;;;;4995601;28;20032;-86
2021/09/16 10:25:19;;;;;;;4.32;0.60;;;22.80;68.50;;;;;;5010385;28;20078;-86
2021/09/16 10:27:48;;;;;;;2.58;0.60;;;23.40;66.80;;;;;;4995385;28;20027;-83
2021/09/16 10:30:23;;;;;;;4.95;0.60;;;24.10;67.00;;;;;;5010497;28;20018;-84
2021/09/16 10:33:09;;;;;;;3.88;0.63;;;24.60;63.90;;;;;;4995097;28;20374;-85
2021/09/16 10:35:57;;;;;;;1.80;0.40;;;25.00;61.70;;;;;;4994241;28;20406;-83
2021/09/16 10:38:39;;;;;;;2.47;0.45;;;25.30;58.80;;;;;;5009802;28;20080;-83
2021/09/16 10:41:27;;;;;;;5.10;0.75;;;25.60;57.50;;;;;;5009740;28;20027;-83
2021/09/16 10:43:58;;;;;;;3.17;0.47;;;25.90;56.20;;;;;;4993925;28;20532;-84
2021/09/16 10:46:35;;;;;;;1.55;0.40;;;26.30;56.00;;;;;;4994848;28;20026;-83
2021/09/16 10:49:20;;;;;;;2.00;0.50;;;26.60;56.30;;;;;;5009887;28;20397;-83
2021/09/16 10:51:51;;;;;;;1.55;0.40;;;26.90;53.60;;;;;;4995018;28;20109;-84
2021/09/16 10:54:23;;;;;;;1.88;0.40;;;27.00;54.20;;;;;;4994663;28;20032;-83
2021/09/16 10:57:11;;;;;;;3.58;0.60;;;27.10;53.80;;;;;;5009632;28;20030;-82
2021/09/16 10:59:53;;;;;;;2.38;0.40;;;27.30;52.30;;;;;;5009786;28;20030;-83
2021/09/16 11:02:23;;;;;;;2.90;0.50;;;27.20;50.80;;;;;;5009249;28;20030;-85
2021/09/16 11:04:55;;;;;;;4.47;0.50;;;27.30;51.60;;;;;;4994087;28;20065;-84
2021/09/16 11:07:39;;;;;;;2.72;0.40;;;27.40;51.10;;;;;;4994712;28;20029;-83
2021/09/16 11:10:21;;;;;;;2.38;0.40;;;27.60;50.40;;;;;;5009621;28;20026;-84
2021/09/16 11:13:02;;;;;;;2.45;0.50;;;27.80;50.10;;;;;;5009234;28;20027;-85
2021/09/16 11:15:31;;;;;;;3.47;0.60;;;27.80;49.30;;;;;;4993248;28;20101;-83
2021/09/16 11:18:23;;;;;;;2.83;0.52;;;27.60;49.70;;;;;;4993185;28;20106;-83
2021/09/16 11:20:54;;;;;;;3.53;0.47;;;27.10;49.70;;;;;;4992685;28;20033;-83
2021/09/16 11:23:23;;;;;;;1.45;0.43;;;26.80;50.30;;;;;;4994104;28;20093;-83
2021/09/16 11:25:50;;;;;;;5.72;0.57;;;26.60;50.30;;;;;;4977245;28;20116;-83
2021/09/16 11:28:17;;;;;;;1.38;0.40;;;26.30;50.50;;;;;;4992824;28;20038;-84
2021/09/16 11:30:54;;;;;;;;;;;;;;;;;;;;;
2021/09/16 11:33:20;;;;;;;5.47;0.60;;;26.40;50.90;;;;;;4993895;28;20018;-85
2021/09/16 11:35:58;;;;;;;4.22;0.50;;;26.30;50.60;;;;;;4992846;28;20096;-85
2021/09/16 11:38:26;;;;;;;3.72;0.77;;;26.00;51.30;;;;;;4993954;28;20097;-85
2021/09/16 11:40:51;;;;;;;2.70;0.55;;;26.00;52.00;;;;;;5009278;28;20057;-85
2021/09/16 11:43:18;;;;;;;3.03;0.60;;;25.90;51.80;;;;;;4993896;28;20474;-84
2021/09/16 11:45:45;;;;;;;3.30;0.57;;;25.60;52.00;;;;;;5008366;28;20112;-84
2021/09/16 11:48:26;;;;;;;3.15;0.55;;;25.20;52.40;;;;;;5009161;28;20029;-85
2021/09/16 11:50:58;;;;;;;2.60;0.57;;;24.60;53.20;;;;;;5009067;28;20085;-84
2021/09/16 11:53:30;;;;;;;2.47;0.45;;;24.40;54.50;;;;;;5009024;28;20121;-84
2021/09/16 11:55:57;;;;;;;4.07;0.60;;;24.50;54.90;;;;;;4992061;28;20035;-85
2021/09/16 11:58:37;;;;;;;3.05;0.60;;;24.60;55.00;;;;;;5008581;28;20537;-84
2021/09/16 12:01:13;;;;;;;4.88;0.68;;;24.60;54.90;;;;;;5008309;28;20108;-85
2021/09/16 12:03:40;;;;;;;5.78;0.80;;;24.30;55.10;;;;;;5008453;28;20084;-84
2021/09/16 12:06:16;;;;;;;3.78;0.63;;;24.00;55.50;;;;;;5008839;28;20030;-85
2021/09/16 12:09:01;;;;;;;4.53;1.08;;;23.70;56.30;;;;;;4992881;28;20391;-85
2021/09/16 12:11:28;;;;;;;3.05;0.63;;;23.60;57.10;;;;;;5012828;28;20033;-85
2021/09/16 12:13:57;;;;;;;3.03;0.60;;;23.50;57.60;;;;;;4996475;28;20030;-85
2021/09/16 12:16:23;;;;;;;1.63;0.63;;;23.50;57.50;;;;;;5012849;28;20038;-86
2021/09/16 12:18:54;;;;;;;3.65;0.60;;;23.40;57.60;;;;;;5012542;28;20028;-84
2021/09/16 12:21:27;;;;;;;6.68;0.75;;;23.40;58.00;;;;;;4997069;28;20026;-85
2021/09/16 12:23:54;;;;;;;;;;;23.70;57.90;;;;;;4998134;28;20065;-84
2021/09/16 12:26:23;;;;;;;1.65;0.50;;;23.90;57.50;;;;;;4996097;28;19929;-84
2021/09/16 12:29:01;;;;;;;5.40;0.57;;;24.10;57.10;;;;;;4996017;28;20027;-84
2021/09/16 12:31:32;;;;;;;2.97;0.70;;;24.30;57.10;;;;;;4995455;28;20027;-84
2021/09/16 12:34:01;;;;;;;4.72;0.60;;;24.30;56.70;;;;;;4997454;28;20050;-84
2021/09/16 12:36:28;;;;;;;4.53;0.70;;;24.30;56.30;;;;;;5011866;28;20398;-85
2021/09/16 12:39:05;;;;;;;3.58;0.50;;;24.60;56.90;;;;;;4997056;28;20373;-85
2021/09/16 12:41:35;;;;;;;2.03;0.40;;;25.00;55.60;;;;;;5011957;28;20113;-83
2021/09/16 12:44:14;;;;;;;2.42;0.40;;;25.20;54.30;;;;;;4996806;28;20035;-84
2021/09/16 12:47:06;;;;;;;1.77;0.50;;;25.70;53.90;;;;;;4997167;28;20018;-84
2021/09/16 12:49:34;;;;;;;2.83;0.52;;;26.20;53.00;;;;;;4996732;28;20085;-85
2021/09/16 12:52:04;;;;;;;2.35;0.50;;;26.50;52.20;;;;;;5012189;28;20117;-85